createdAt,value
2018-01-31T01:52:27.896Z,13.20
2018-01-31T01:54:55.434Z,16.45
2018-01-31T01:57:23.710Z,19.17
2018-01-31T01:59:51.226Z,15.35
2018-01-31T02:02:18.750Z,21.80
2018-01-31T02:04:47.101Z,12.52
2018-01-31T02:07:14.616Z,11.35
2018-01-31T02:09:42.167Z,12.60
2018-01-31T02:12:09.702Z,14.48
2018-01-31T02:14:37.230Z,19.23
2018-01-31T02:17:04.751Z,11.15
2018-01-31T02:19:33.029Z,13.77
2018-01-31T02:22:01.299Z,11.25
2018-01-31T02:24:29.584Z,11.30
2018-01-31T02:26:57.102Z,6.32
2018-01-31T02:29:24.947Z,11.20
2018-01-31T02:31:52.450Z,12.90
2018-01-31T02:34:19.957Z,10.52
2018-01-31T02:36:48.273Z,14.70
2018-01-31T02:39:30.735Z,17.73
2018-01-31T02:41:59.052Z,8.68
2018-01-31T02:44:26.583Z,11.00
2018-01-31T02:46:54.898Z,11.50
2018-01-31T02:49:22.407Z,10.82
2018-01-31T02:51:49.912Z,10.20
2018-01-31T02:54:17.422Z,14.82
2018-01-31T02:56:44.930Z,15.15
2018-01-31T02:59:13.193Z,16.27
2018-01-31T03:01:41.482Z,12.57
2018-01-31T03:04:09.761Z,7.65
2018-01-31T03:06:37.281Z,9.82
2018-01-31T03:09:05.898Z,13.18
2018-01-31T03:11:33.488Z,10.63
2018-01-31T03:14:01.755Z,11.18
2018-01-31T03:16:30.032Z,8.65
2018-01-31T03:18:58.330Z,12.48
2018-01-31T03:21:26.826Z,11.35
2018-01-31T03:23:55.082Z,16.87
2018-01-31T03:28:43.331Z,10.10
2018-01-31T03:31:11.057Z,11.40
2018-01-31T03:33:38.578Z,10.30
2018-01-31T03:36:06.114Z,13.30
2018-01-31T03:38:33.642Z,8.95
2018-01-31T03:41:01.141Z,12.68
2018-01-31T03:43:28.736Z,16.05
2018-01-31T03:45:56.253Z,16.20
2018-01-31T03:48:23.753Z,13.90
2018-01-31T03:50:51.287Z,9.48
2018-01-31T03:53:18.775Z,12.13
2018-01-31T03:55:46.300Z,17.77
2018-01-31T03:58:13.923Z,12.82
2018-01-31T04:00:42.210Z,9.80
2018-01-31T04:03:10.476Z,10.48
2018-01-31T04:05:38.808Z,18.27
2018-01-31T04:08:08.065Z,19.50
2018-01-31T04:10:36.369Z,13.90
2018-01-31T04:13:04.608Z,10.63
2018-01-31T04:15:32.901Z,12.15
2018-01-31T04:18:00.380Z,14.50
2018-01-31T04:20:28.673Z,12.07
2018-01-31T04:22:56.946Z,14.75
2018-01-31T04:25:25.218Z,15.02
2018-01-31T04:27:52.737Z,13.15
2018-01-31T04:30:20.309Z,12.55
2018-01-31T04:32:47.857Z,13.02
2018-01-31T04:35:15.338Z,13.07
2018-01-31T04:37:42.831Z,10.45
2018-01-31T04:40:10.328Z,13.05
2018-01-31T04:42:37.831Z,12.75
2018-01-31T04:45:05.329Z,9.88
2018-01-31T04:47:33.605Z,12.00
2018-01-31T04:50:01.871Z,12.70
2018-01-31T04:52:30.536Z,10.32
2018-01-31T04:54:58.038Z,11.75
2018-01-31T04:57:26.321Z,14.48
2018-01-31T04:59:54.592Z,13.55
2018-01-31T05:02:22.107Z,10.05
2018-01-31T05:04:49.601Z,11.55
2018-01-31T05:07:17.106Z,10.70
2018-01-31T05:09:45.374Z,11.43
2018-01-31T05:12:13.642Z,7.22
2018-01-31T05:14:41.133Z,13.55
2018-01-31T05:17:08.645Z,10.80
2018-01-31T05:19:36.157Z,24.67
2018-01-31T05:22:03.693Z,13.82
2018-01-31T05:24:31.233Z,14.90
2018-01-31T05:26:58.720Z,9.63
2018-01-31T05:29:26.667Z,19.00
2018-01-31T05:31:54.195Z,21.67
2018-01-31T05:34:21.681Z,13.38
2018-01-31T05:36:49.207Z,14.65
2018-01-31T05:39:17.525Z,15.23
2018-01-31T05:41:45.052Z,14.00
2018-01-31T05:44:13.319Z,13.30
2018-01-31T05:46:41.603Z,11.60
2018-01-31T05:49:09.909Z,10.65
2018-01-31T05:51:37.416Z,12.13
2018-01-31T05:54:04.932Z,14.38
2018-01-31T05:56:32.450Z,10.05
2018-01-31T05:58:59.976Z,12.90
2018-01-31T06:01:27.468Z,13.27
2018-01-31T06:03:54.976Z,9.55
2018-01-31T06:06:23.295Z,16.00
2018-01-31T06:08:50.812Z,15.93
2018-01-31T06:11:19.076Z,13.50
2018-01-31T06:13:46.593Z,15.05
2018-01-31T06:16:14.089Z,11.32
2018-01-31T06:18:41.672Z,8.85
2018-01-31T06:21:09.180Z,15.75
2018-01-31T06:23:36.686Z,12.60
2018-01-31T06:26:04.207Z,11.52
2018-01-31T06:28:31.742Z,12.02
2018-01-31T06:31:00.015Z,12.43
2018-01-31T06:33:28.320Z,16.35
2018-01-31T06:35:55.812Z,15.55
2018-01-31T06:38:23.326Z,17.62
2018-01-31T06:40:51.638Z,14.75
2018-01-31T06:43:19.176Z,24.23
2018-01-31T06:45:47.450Z,16.52
2018-01-31T06:48:15.745Z,13.88
2018-01-31T06:50:43.480Z,20.80
2018-01-31T06:53:10.988Z,12.23
2018-01-31T06:55:38.503Z,13.18
2018-01-31T06:58:05.993Z,17.27
2018-01-31T07:00:34.318Z,17.45
2018-01-31T07:03:01.834Z,16.55
2018-01-31T07:05:30.105Z,12.98
2018-01-31T07:07:58.380Z,16.58
2018-01-31T07:10:25.906Z,15.13
2018-01-31T07:12:53.439Z,16.95
2018-01-31T07:15:20.931Z,15.98
2018-01-31T07:17:48.457Z,20.45
2018-01-31T07:20:15.945Z,15.00
2018-01-31T07:22:43.468Z,22.23
2018-01-31T07:25:11.823Z,21.50
2018-01-31T07:27:40.169Z,20.12
2018-01-31T07:30:09.152Z,39.03
2018-01-31T07:32:36.675Z,20.77
2018-01-31T07:35:04.198Z,19.83
2018-01-31T07:37:31.733Z,20.48
2018-01-31T07:40:00.012Z,19.55
2018-01-31T07:42:28.305Z,18.67
2018-01-31T07:44:55.839Z,24.57
2018-01-31T07:47:23.392Z,17.52
2018-01-31T07:49:51.683Z,18.30
2018-01-31T07:52:19.977Z,32.60
2018-01-31T07:54:48.254Z,21.12
2018-01-31T07:57:16.521Z,17.53
2018-01-31T07:59:44.071Z,17.70
2018-01-31T08:02:11.632Z,15.43
2018-01-31T08:04:39.148Z,17.65
2018-01-31T08:07:06.636Z,19.43
2018-01-31T08:09:34.154Z,32.10
2018-01-31T08:12:01.650Z,15.50
2018-01-31T08:14:29.153Z,14.73
2018-01-31T08:16:56.670Z,17.53
2018-01-31T08:19:24.945Z,24.17
2018-01-31T08:21:52.445Z,19.33
2018-01-31T08:24:19.959Z,24.10
2018-01-31T08:26:48.216Z,27.23
2018-01-31T08:29:16.766Z,22.27
2018-01-31T08:31:44.561Z,22.30
2018-01-31T08:34:12.605Z,19.33
2018-01-31T08:36:40.117Z,22.43
2018-01-31T08:39:07.646Z,20.03
2018-01-31T08:41:35.133Z,23.50
2018-01-31T08:44:03.965Z,23.57
2018-01-31T08:46:31.482Z,17.80
2018-01-31T08:48:58.995Z,25.07
2018-01-31T08:51:26.518Z,19.20
2018-01-31T08:53:54.037Z,17.60
2018-01-31T08:56:21.552Z,24.80
2018-01-31T08:58:49.070Z,20.30
2018-01-31T09:01:16.598Z,17.60
2018-01-31T09:03:44.869Z,17.97
2018-01-31T09:06:13.190Z,25.70
2018-01-31T09:08:40.688Z,26.30
2018-01-31T09:11:08.180Z,27.43
2018-01-31T09:13:36.475Z,21.57
2018-01-31T09:16:04.779Z,21.90
2018-01-31T09:18:32.280Z,19.07
2018-01-31T09:20:59.810Z,20.13
2018-01-31T09:23:27.327Z,18.57
2018-01-31T09:25:54.875Z,24.00
2018-01-31T09:28:23.290Z,23.17
2018-01-31T09:30:51.574Z,22.30
2018-01-31T09:33:19.824Z,20.10
2018-01-31T09:35:48.834Z,26.20
2018-01-31T09:38:17.112Z,22.13
2018-01-31T09:40:44.643Z,21.67
2018-01-31T09:43:12.124Z,21.93
2018-01-31T09:45:40.413Z,23.33
2018-01-31T09:48:07.949Z,23.53
2018-01-31T09:50:35.496Z,20.80
2018-01-31T09:53:03.005Z,18.43
2018-01-31T09:55:32.151Z,15.90
2018-01-31T09:57:59.675Z,23.23
2018-01-31T10:00:27.199Z,21.77
2018-01-31T10:02:54.727Z,23.00
2018-01-31T10:05:22.993Z,20.47
2018-01-31T10:07:51.267Z,22.03
2018-01-31T10:10:19.543Z,25.47
2018-01-31T10:12:47.033Z,23.67
2018-01-31T10:15:14.547Z,25.87
2018-01-31T10:17:42.049Z,24.73
2018-01-31T10:20:10.297Z,26.00
2018-01-31T10:22:37.843Z,24.63
2018-01-31T10:25:05.351Z,31.13
2018-01-31T10:27:33.644Z,26.77
2018-01-31T10:30:01.937Z,27.40
2018-01-31T10:32:29.455Z,32.60
2018-01-31T10:34:56.960Z,20.40
2018-01-31T10:37:24.509Z,26.40
2018-01-31T10:39:52.034Z,26.23
2018-01-31T10:42:19.564Z,24.73
2018-01-31T10:44:47.117Z,19.17
2018-01-31T10:47:14.660Z,23.57
2018-01-31T10:49:42.981Z,28.33
2018-01-31T10:52:10.495Z,23.70
2018-01-31T10:57:28.763Z,30.33
2018-01-31T10:59:33.070Z,26.53
2018-01-31T11:02:00.571Z,24.47
2018-01-31T11:04:28.833Z,20.23
2018-01-31T11:06:57.125Z,33.37
2018-01-31T11:09:26.309Z,24.00
2018-01-31T11:11:53.869Z,36.73
2018-01-31T11:14:21.382Z,22.00
2018-01-31T11:16:48.989Z,20.93
2018-01-31T11:19:16.507Z,21.57
2018-01-31T11:21:44.029Z,18.53
2018-01-31T11:24:11.553Z,16.07
2018-01-31T11:26:39.123Z,16.60
2018-01-31T11:29:06.596Z,14.30
2018-01-31T11:31:34.109Z,17.77
2018-01-31T11:34:02.350Z,12.07
2018-01-31T11:36:29.871Z,11.50
2018-01-31T11:38:57.371Z,13.80
2018-01-31T11:41:24.969Z,22.83
2018-01-31T11:43:53.321Z,11.97
2018-01-31T11:46:20.855Z,9.47
2018-01-31T11:48:48.380Z,10.87
2018-01-31T11:51:16.657Z,12.33
2018-01-31T11:53:44.924Z,11.57
2018-01-31T11:56:12.438Z,13.33
2018-01-31T11:58:39.971Z,10.37
2018-01-31T12:01:07.822Z,9.50
2018-01-31T12:03:36.153Z,12.37
2018-01-31T12:06:03.654Z,13.33
2018-01-31T12:08:31.153Z,10.60
2018-01-31T12:10:58.673Z,8.20
2018-01-31T12:16:49.993Z,8.90
2018-01-31T12:19:38.338Z,11.70
2018-01-31T12:22:17.742Z,7.80
2018-01-31T12:24:57.042Z,10.50
2018-01-31T12:27:36.595Z,11.43
2018-01-31T12:30:15.879Z,7.10
2018-01-31T12:32:55.253Z,7.33
2018-01-31T12:35:43.609Z,16.17
2018-01-31T12:38:23.066Z,6.80
2018-01-31T12:40:50.091Z,6.77
2018-01-31T12:43:17.100Z,7.23
2018-01-31T12:45:44.886Z,7.63
2018-01-31T12:48:24.952Z,7.60
2018-01-31T12:51:04.552Z,7.83
2018-01-31T12:53:52.907Z,6.50
2018-01-31T12:59:31.592Z,4.37
2018-01-31T13:02:10.882Z,5.17
2018-01-31T13:04:50.321Z,10.67
2018-01-31T13:07:25.432Z,6.00
2018-01-31T13:10:17.282Z,4.83
2018-01-31T13:12:56.765Z,4.93
2018-01-31T13:15:36.916Z,3.50
2018-01-31T13:21:24.728Z,3.67
2018-01-31T13:24:04.002Z,5.33
2018-01-31T13:26:43.543Z,2.97
2018-01-31T13:29:19.540Z,5.83
2018-01-31T13:31:59.836Z,3.13
2018-01-31T13:34:40.077Z,6.70
2018-01-31T13:37:36.272Z,9.17
2018-01-31T13:40:28.443Z,7.37
2018-01-31T13:43:08.459Z,4.00
2018-01-31T13:45:48.088Z,5.70
2018-01-31T13:48:36.358Z,14.17
2018-01-31T13:51:16.461Z,7.37
2018-01-31T13:53:55.937Z,6.60
2018-01-31T13:56:36.056Z,5.30
2018-01-31T13:59:15.269Z,8.97
2018-01-31T14:01:54.617Z,6.60
2018-01-31T14:04:42.842Z,7.27
2018-01-31T14:07:22.126Z,6.53
2018-01-31T14:10:02.483Z,4.20
2018-01-31T14:12:41.833Z,7.23
2018-01-31T14:15:22.127Z,5.40
2018-01-31T14:18:01.365Z,4.40
2018-01-31T14:20:40.640Z,7.70
2018-01-31T14:23:20.737Z,9.90
2018-01-31T14:26:00.186Z,13.33
2018-01-31T14:31:42.237Z,4.10
2018-01-31T14:34:21.749Z,7.83
2018-01-31T14:36:49.571Z,7.20
2018-01-31T14:39:16.581Z,5.07
2018-01-31T14:41:44.358Z,6.00
2018-01-31T14:44:12.143Z,7.07
2018-01-31T14:46:39.237Z,12.10
2018-01-31T14:49:06.253Z,7.80
2018-01-31T14:51:33.261Z,9.07
2018-01-31T14:54:01.044Z,5.20
2018-01-31T14:56:28.895Z,4.20
2018-01-31T14:58:55.921Z,4.53
2018-01-31T15:01:22.926Z,4.13
2018-01-31T15:03:50.768Z,3.20
2018-01-31T15:06:18.577Z,5.03
2018-01-31T15:08:45.602Z,5.80
2018-01-31T15:11:13.403Z,2.60
2018-01-31T15:13:40.410Z,2.97
2018-01-31T15:16:07.421Z,4.33
2018-01-31T15:18:34.505Z,7.30
2018-01-31T15:21:01.532Z,3.70
2018-01-31T15:23:28.552Z,5.67
2018-01-31T15:25:55.584Z,2.63
2018-01-31T15:28:24.116Z,9.17
2018-01-31T15:30:51.168Z,6.90
2018-01-31T15:33:18.224Z,3.20
2018-01-31T15:35:45.279Z,3.47
2018-01-31T15:38:12.293Z,4.73
2018-01-31T15:40:40.067Z,1.63
2018-01-31T15:43:08.106Z,3.50
2018-01-31T15:45:35.131Z,3.27
2018-01-31T15:48:02.141Z,3.20
2018-01-31T15:50:29.978Z,4.47
2018-01-31T15:52:56.991Z,8.30
2018-01-31T15:55:24.028Z,7.10
2018-01-31T15:57:51.824Z,6.20
2018-01-31T16:00:18.844Z,2.27
2018-01-31T16:02:46.816Z,5.83
2018-01-31T16:05:14.614Z,6.00
2018-01-31T16:07:41.636Z,5.73
2018-01-31T16:10:09.398Z,4.17
2018-01-31T16:12:36.500Z,3.33
2018-01-31T16:15:03.512Z,7.20
2018-01-31T16:17:33.926Z,9.70
2018-01-31T16:20:14.478Z,8.43
2018-01-31T16:22:42.144Z,6.63
2018-01-31T16:25:09.794Z,5.13
2018-01-31T16:28:02.976Z,1.63
2018-01-31T16:30:43.170Z,2.50
2018-01-31T16:33:22.690Z,5.77
2018-01-31T16:35:50.193Z,3.43
2018-01-31T16:38:17.909Z,5.17
2018-01-31T16:40:45.457Z,6.70
2018-01-31T16:43:13.731Z,5.60
2018-01-31T16:45:41.268Z,5.30
2018-01-31T16:48:08.797Z,7.23
2018-01-31T16:50:36.390Z,5.30
2018-01-31T16:53:03.927Z,6.53
2018-01-31T16:55:31.514Z,6.10
2018-01-31T16:57:59.089Z,11.13
2018-01-31T17:00:26.632Z,8.20
2018-01-31T17:02:54.112Z,3.03
2018-01-31T17:05:21.668Z,3.40
2018-01-31T17:07:49.227Z,6.50
2018-01-31T17:10:17.965Z,2.43
2018-01-31T17:12:45.471Z,7.53
2018-01-31T17:15:12.995Z,11.13
2018-01-31T17:17:41.268Z,8.90
2018-01-31T17:20:08.813Z,11.20
2018-01-31T17:22:36.296Z,2.90
2018-01-31T17:25:04.581Z,6.07
2018-01-31T17:27:32.910Z,2.80
2018-01-31T17:30:00.440Z,1.20
2018-01-31T17:32:28.751Z,1.30
2018-01-31T17:34:56.365Z,2.10
2018-01-31T17:37:23.966Z,3.47
2018-01-31T17:39:51.509Z,7.17
2018-01-31T17:42:19.774Z,8.67
2018-01-31T17:44:48.090Z,6.87
2018-01-31T17:47:15.739Z,5.27
2018-01-31T17:49:43.249Z,4.97
2018-01-31T17:52:10.763Z,7.27
2018-01-31T17:54:39.033Z,5.80
2018-01-31T17:57:07.351Z,7.67
2018-01-31T17:59:34.855Z,1.70
2018-01-31T18:02:02.496Z,3.23
2018-01-31T18:04:30.037Z,4.73
2018-01-31T18:06:58.287Z,1.63
2018-01-31T18:09:25.894Z,9.43
2018-01-31T18:11:53.410Z,7.63
2018-01-31T18:14:21.686Z,7.10
2018-01-31T18:16:49.217Z,16.93
2018-01-31T18:19:16.744Z,6.20
2018-01-31T18:21:45.051Z,9.03
2018-01-31T18:24:12.574Z,13.57
2018-01-31T18:26:40.892Z,9.60
2018-01-31T18:29:08.441Z,6.77
2018-01-31T18:31:36.748Z,4.83
2018-01-31T18:34:04.281Z,5.73
2018-01-31T18:36:32.578Z,3.03
2018-01-31T18:39:00.075Z,7.23
2018-01-31T18:41:27.600Z,9.87
2018-01-31T18:43:55.137Z,7.13
2018-01-31T18:46:23.411Z,6.87
2018-01-31T18:48:50.936Z,12.20
2018-01-31T18:51:18.424Z,8.60
2018-01-31T18:53:45.956Z,9.20
2018-01-31T18:56:13.478Z,5.40
2018-01-31T18:58:41.782Z,4.67
2018-01-31T19:01:09.304Z,6.03
2018-01-31T19:03:36.809Z,17.60
2018-01-31T19:06:04.413Z,16.13
2018-01-31T19:08:32.116Z,14.53
2018-01-31T19:11:00.390Z,10.80
2018-01-31T19:13:29.412Z,5.70
2018-01-31T19:15:57.717Z,5.73
2018-01-31T19:18:25.222Z,4.40
2018-01-31T19:20:52.721Z,3.90
2018-01-31T19:23:21.935Z,8.10
2018-01-31T19:25:49.436Z,5.43
2018-01-31T19:28:17.906Z,12.27
2018-01-31T19:30:45.412Z,14.67
2018-01-31T19:33:13.688Z,18.67
2018-01-31T19:35:41.282Z,19.80
2018-01-31T19:38:08.859Z,9.97
2018-01-31T19:40:36.378Z,4.07
2018-01-31T19:43:03.928Z,4.73
2018-01-31T19:45:31.497Z,3.90
2018-01-31T19:47:59.031Z,3.70
2018-01-31T19:50:26.540Z,1.70
2018-01-31T19:52:54.894Z,3.37
2018-01-31T19:55:22.369Z,3.83
2018-01-31T19:57:49.967Z,3.50
2018-01-31T20:00:18.242Z,6.07
2018-01-31T20:02:46.518Z,3.73
2018-01-31T20:05:14.845Z,3.13
2018-01-31T20:07:42.356Z,3.17
2018-01-31T20:10:10.675Z,2.20
2018-01-31T20:12:38.248Z,1.93
2018-01-31T20:15:05.785Z,3.50
2018-01-31T20:17:34.065Z,4.00
2018-01-31T20:20:02.380Z,2.67
2018-01-31T20:22:29.892Z,4.00
2018-01-31T20:24:58.201Z,3.57
2018-01-31T20:27:25.735Z,2.80
2018-01-31T20:29:54.046Z,2.00
2018-01-31T20:32:21.579Z,6.37
2018-01-31T20:34:49.852Z,3.60
2018-01-31T20:37:17.391Z,4.70
2018-01-31T20:39:45.538Z,3.70
2018-01-31T20:42:13.103Z,5.40
2018-01-31T20:44:40.638Z,3.70
2018-01-31T20:47:08.975Z,1.43
2018-01-31T20:49:36.541Z,2.90
2018-01-31T20:52:04.102Z,2.80
2018-01-31T20:54:31.614Z,6.40
2018-01-31T20:57:00.775Z,3.90
2018-01-31T20:59:28.265Z,5.90
2018-01-31T21:01:55.901Z,4.40
2018-01-31T21:04:24.645Z,4.80
2018-01-31T21:06:52.340Z,6.07
2018-01-31T21:09:19.893Z,6.40
2018-01-31T21:11:47.468Z,1.43
2018-01-31T21:14:15.020Z,1.47
2018-01-31T21:16:42.674Z,2.00
2018-01-31T21:19:10.938Z,1.60
2018-01-31T21:21:38.523Z,1.80
2018-01-31T21:24:06.052Z,1.73
2018-01-31T21:26:34.055Z,1.43
2018-01-31T21:29:02.328Z,2.87
2018-01-31T21:31:30.610Z,5.87
2018-01-31T21:33:58.906Z,4.43
2018-01-31T21:36:27.284Z,6.70
2018-01-31T21:38:54.819Z,3.27
2018-01-31T21:41:23.192Z,9.47
2018-01-31T21:43:50.708Z,5.60
2018-01-31T21:46:18.242Z,5.93
2018-01-31T21:48:46.603Z,4.40
2018-01-31T21:51:14.901Z,4.70
2018-01-31T21:53:43.177Z,5.03
2018-01-31T21:56:10.881Z,6.60
2018-01-31T21:58:38.423Z,8.13
2018-01-31T22:01:06.734Z,10.17
2018-01-31T22:03:34.222Z,7.27
2018-01-31T22:06:01.728Z,5.50
2018-01-31T22:08:29.312Z,7.03
2018-01-31T22:10:57.584Z,4.73
2018-01-31T22:13:25.844Z,4.73
2018-01-31T22:15:53.331Z,3.47
2018-01-31T22:18:21.627Z,7.53
2018-01-31T22:20:49.146Z,2.20
2018-01-31T22:23:16.638Z,7.30
2018-01-31T22:25:44.915Z,4.93
2018-01-31T22:28:13.192Z,4.30
2018-01-31T22:30:41.436Z,4.50
2018-01-31T22:33:08.981Z,4.83
2018-01-31T22:35:38.021Z,2.67
2018-01-31T22:38:05.531Z,2.50
2018-01-31T22:40:33.158Z,2.70
2018-01-31T22:43:01.582Z,3.40
2018-01-31T22:45:29.078Z,4.73
2018-01-31T22:47:56.665Z,5.90
2018-01-31T22:50:24.336Z,4.40
2018-01-31T22:52:52.624Z,2.10
2018-01-31T22:55:21.175Z,4.27
2018-01-31T22:57:49.129Z,5.60
2018-01-31T23:00:25.748Z,4.47
2018-01-31T23:02:54.020Z,3.50
2018-01-31T23:05:21.562Z,1.90
2018-01-31T23:07:49.137Z,3.90
2018-01-31T23:10:16.753Z,1.53
2018-01-31T23:12:50.050Z,1.80
2018-01-31T23:15:17.606Z,3.77
2018-01-31T23:17:50.897Z,8.17
2018-01-31T23:20:19.161Z,5.17
2018-01-31T23:22:47.413Z,6.43
2018-01-31T23:25:15.103Z,3.73
2018-01-31T23:27:42.662Z,3.73
2018-01-31T23:30:10.202Z,6.13
2018-01-31T23:32:39.339Z,2.27
2018-01-31T23:35:07.649Z,3.93
2018-01-31T23:37:35.155Z,1.90
2018-01-31T23:40:03.498Z,5.40
2018-01-31T23:42:31.000Z,3.33
2018-01-31T23:44:59.405Z,5.13
2018-01-31T23:47:27.757Z,2.10
2018-01-31T23:49:55.321Z,5.03
2018-01-31T23:52:22.894Z,2.17
2018-01-31T23:54:50.420Z,2.83
2018-01-31T23:57:17.971Z,3.53
2018-01-31T23:59:45.487Z,2.50
